sensor_id;sensor_type;location;lat;lon;timestamp;pressure;altitude;pressure_sealevel;temperature;humidity
53868;BME280;41577;47.470;19.080;2023-03-03T00:00:23;100428.78;;;3.26;100.00
53868;BME280;41577;47.470;19.080;2023-03-03T00:00:36;100422.53;;;3.27;100.00
53868;BME280;41577;47.470;19.080;2023-03-03T00:00:48;100432.09;;;3.28;100.00
53868;BME280;41577;47.470;19.080;2023-03-03T00:01:01;100428.63;;;3.28;100.00
53868;BME280;41577;47.470;19.080;2023-03-03T00:01:15;100430.44;;;3.27;100.00
53868;BME280;41577;47.470;19.080;2023-03-03T00:01:28;100424.59;;;3.24;100.00
53868;BME280;41577;47.470;19.080;2023-03-03T00:01:43;100434.88;;;3.27;100.00
53868;BME280;41577;47.470;19.080;2023-03-03T00:01:56;100433.22;;;3.26;100.00
53868;BME280;41577;47.470;19.080;2023-03-03T00:02:09;100426.16;;;3.26;100.00
53868;BME280;41577;47.470;19.080;2023-03-03T00:02:22;100432.38;;;3.25;100.00
53868;BME280;41577;47.470;19.080;2023-03-03T00:02:34;100433.22;;;3.26;100.00
53868;BME280;41577;47.470;19.080;2023-03-03T00:02:47;100430.72;;;3.24;100.00
53868;BME280;41577;47.470;19.080;2023-03-03T00:03:03;100433.22;;;3.26;100.00
53868;BME280;41577;47.470;19.080;2023-03-03T00:03:20;100429.75;;;3.25;100.00
53868;BME280;41577;47.470;19.080;2023-03-03T00:03:34;100428.91;;;3.25;100.00
53868;BME280;41577;47.470;19.080;2023-03-03T00:03:47;100424.59;;;3.24;100.00
53868;BME280;41577;47.470;19.080;2023-03-03T00:04:00;100429.88;;;3.24;100.00
53868;BME280;41577;47.470;19.080;2023-03-03T00:04:13;100435.16;;;3.24;100.00
53868;BME280;41577;47.470;19.080;2023-03-03T00:04:27;100430.84;;;3.23;100.00
53868;BME280;41577;47.470;19.080;2023-03-03T00:04:40;100424.19;;;3.19;100.00
53868;BME280;41577;47.470;19.080;2023-03-03T00:04:53;100427.50;;;3.21;100.00
53868;BME280;41577;47.470;19.080;2023-03-03T00:05:07;100424.06;;;3.20;100.00
53868;BME280;41577;47.470;19.080;2023-03-03T00:05:23;100434.31;;;3.23;100.00
53868;BME280;41577;47.470;19.080;2023-03-03T00:05:35;100436.97;;;3.23;100.00
53868;BME280;41577;47.470;19.080;2023-03-03T00:05:48;100425.69;;;3.21;100.00
53868;BME280;41577;47.470;19.080;2023-03-03T00:06:01;100435.44;;;3.21;100.00
53868;BME280;41577;47.470;19.080;2023-03-03T00:06:14;100431.84;;;3.22;100.00
53868;BME280;41577;47.470;19.080;2023-03-03T00:06:29;100430.97;;;3.21;100.00
53868;BME280;41577;47.470;19.080;2023-03-03T00:06:43;100430.97;;;3.21;100.00
53868;BME280;41577;47.470;19.080;2023-03-03T00:06:56;100427.50;;;3.21;100.00
53868;BME280;41577;47.470;19.080;2023-03-03T00:07:10;100425.84;;;3.20;100.00
53868;BME280;41577;47.470;19.080;2023-03-03T00:07:24;100431.97;;;3.20;100.00
53868;BME280;41577;47.470;19.080;2023-03-03T00:07:38;100420.13;;;3.14;100.00
53868;BME280;41577;47.470;19.080;2023-03-03T00:07:50;100427.09;;;3.16;100.00
53868;BME280;41577;47.470;19.080;2023-03-03T00:08:05;100432.91;;;3.19;100.00
53868;BME280;41577;47.470;19.080;2023-03-03T00:08:18;100427.63;;;3.19;100.00
53868;BME280;41577;47.470;19.080;2023-03-03T00:08:30;100424.19;;;3.19;100.00
53868;BME280;41577;47.470;19.080;2023-03-03T00:08:43;100434.59;;;3.20;100.00
53868;BME280;41577;47.470;19.080;2023-03-03T00:08:56;100426.81;;;3.19;100.00
53868;BME280;41577;47.470;19.080;2023-03-03T00:09:09;100424.19;;;3.19;100.00
53868;BME280;41577;47.470;19.080;2023-03-03T00:09:23;100432.91;;;3.19;100.00
53868;BME280;41577;47.470;19.080;2023-03-03T00:09:36;100423.34;;;3.18;100.00
53868;BME280;41577;47.470;19.080;2023-03-03T00:09:49;100428.91;;;3.15;100.00
53868;BME280;41577;47.470;19.080;2023-03-03T00:10:04;100421.53;;;3.19;100.00
53868;BME280;41577;47.470;19.080;2023-03-03T00:10:17;100426.81;;;3.19;100.00
53868;BME280;41577;47.470;19.080;2023-03-03T00:10:29;100429.63;;;3.17;100.00
53868;BME280;41577;47.470;19.080;2023-03-03T00:10:42;100424.34;;;3.17;100.00
53868;BME280;41577;47.470;19.080;2023-03-03T00:10:56;100427.81;;;3.18;100.00
53868;BME280;41577;47.470;19.080;2023-03-03T00:11:08;100417.38;;;3.16;100.00
53868;BME280;41577;47.470;19.080;2023-03-03T00:11:24;100421.81;;;3.16;100.00
53868;BME280;41577;47.470;19.080;2023-03-03T00:11:37;100426.97;;;3.17;100.00
53868;BME280;41577;47.470;19.080;2023-03-03T00:11:55;100426.41;;;3.13;100.00
53868;BME280;41577;47.470;19.080;2023-03-03T00:12:20;100422.66;;;3.16;100.00
53868;BME280;41577;47.470;19.080;2023-03-03T00:12:34;100425.28;;;3.16;100.00
53868;BME280;41577;47.470;19.080;2023-03-03T00:12:57;100424.47;;;3.16;100.00
53868;BME280;41577;47.470;19.080;2023-03-03T00:13:13;100425.69;;;3.11;100.00
53868;BME280;41577;47.470;19.080;2023-03-03T00:13:26;100421.81;;;3.16;100.00
53868;BME280;41577;47.470;19.080;2023-03-03T00:13:44;100423.63;;;3.15;100.00
53868;BME280;41577;47.470;19.080;2023-03-03T00:13:56;100428.75;;;3.17;100.00
53868;BME280;41577;47.470;19.080;2023-03-03T00:14:17;100424.47;;;3.16;100.00
53868;BME280;41577;47.470;19.080;2023-03-03T00:14:34;100418.34;;;3.15;100.00
53868;BME280;41577;47.470;19.080;2023-03-03T00:14:49;100422.66;;;3.16;100.00
53868;BME280;41577;47.470;19.080;2023-03-03T00:15:13;100426.28;;;3.15;100.00
53868;BME280;41577;47.470;19.080;2023-03-03T00:15:26;100421.81;;;3.16;100.00
53868;BME280;41577;47.470;19.080;2023-03-03T00:15:39;100421.69;;;3.17;100.00
53868;BME280;41577;47.470;19.080;2023-03-03T00:15:52;100417.66;;;3.13;100.00
53868;BME280;41577;47.470;19.080;2023-03-03T00:16:16;100427.94;;;3.16;100.00
53868;BME280;41577;47.470;19.080;2023-03-03T00:16:34;100421.81;;;3.16;100.00
53868;BME280;41577;47.470;19.080;2023-03-03T00:16:47;100418.34;;;3.15;100.00
53868;BME280;41577;47.470;19.080;2023-03-03T00:17:01;100419.19;;;3.16;100.00
53868;BME280;41577;47.470;19.080;2023-03-03T00:17:26;100420.84;;;3.17;100.00
53868;BME280;41577;47.470;19.080;2023-03-03T00:17:41;100422.66;;;3.16;100.00
53868;BME280;41577;47.470;19.080;2023-03-03T00:17:56;100427.09;;;3.16;100.00
53868;BME280;41577;47.470;19.080;2023-03-03T00:18:19;100428.75;;;3.17;100.00
53868;BME280;41577;47.470;19.080;2023-03-03T00:18:35;100422.78;;;3.14;100.00
53868;BME280;41577;47.470;19.080;2023-03-03T00:18:51;100418.19;;;3.17;100.00
53868;BME280;41577;47.470;19.080;2023-03-03T00:19:12;100415.72;;;3.15;100.00
53868;BME280;41577;47.470;19.080;2023-03-03T00:19:31;100427.81;;;3.18;100.00
53868;BME280;41577;47.470;19.080;2023-03-03T00:19:49;100416.41;;;3.17;100.00
53868;BME280;41577;47.470;19.080;2023-03-03T00:20:30;100424.34;;;3.17;100.00
53868;BME280;41577;47.470;19.080;2023-03-03T00:20:47;100427.81;;;3.18;100.00
53868;BME280;41577;47.470;19.080;2023-03-03T00:21:01;100420.00;;;3.16;100.00
53868;BME280;41577;47.470;19.080;2023-03-03T00:21:23;100418.19;;;3.17;100.00
53868;BME280;41577;47.470;19.080;2023-03-03T00:21:40;100416.53;;;3.16;100.00
53868;BME280;41577;47.470;19.080;2023-03-03T00:21:55;100420.72;;;3.18;100.00
53868;BME280;41577;47.470;19.080;2023-03-03T00:22:15;100419.19;;;3.16;100.00
53868;BME280;41577;47.470;19.080;2023-03-03T00:22:29;100424.34;;;3.17;100.00
53868;BME280;41577;47.470;19.080;2023-03-03T00:22:43;100416.41;;;3.17;100.00
53868;BME280;41577;47.470;19.080;2023-03-03T00:22:55;100423.47;;;3.17;100.00
53868;BME280;41577;47.470;19.080;2023-03-03T00:23:30;100420.72;;;3.18;100.00
53868;BME280;41577;47.470;19.080;2023-03-03T00:23:47;100414.72;;;3.16;100.00
53868;BME280;41577;47.470;19.080;2023-03-03T00:24:13;100424.19;;;3.19;100.00
53868;BME280;41577;47.470;19.080;2023-03-03T00:24:34;100420.72;;;3.18;100.00
53868;BME280;41577;47.470;19.080;2023-03-03T00:24:48;100417.38;;;3.16;100.00
53868;BME280;41577;47.470;19.080;2023-03-03T00:25:28;100419.06;;;3.17;100.00
53868;BME280;41577;47.470;19.080;2023-03-03T00:25:42;100423.47;;;3.17;100.00
53868;BME280;41577;47.470;19.080;2023-03-03T00:25:55;100419.06;;;3.17;100.00
53868;BME280;41577;47.470;19.080;2023-03-03T00:26:17;100417.38;;;3.16;100.00
53868;BME280;41577;47.470;19.080;2023-03-03T00:26:35;100423.47;;;3.17;100.00
53868;BME280;41577;47.470;19.080;2023-03-03T00:26:49;100416.41;;;3.17;100.00
53868;BME280;41577;47.470;19.080;2023-03-03T00:27:16;100419.88;;;3.18;100.00
53868;BME280;41577;47.470;19.080;2023-03-03T00:27:35;100419.88;;;3.18;100.00
53868;BME280;41577;47.470;19.080;2023-03-03T00:27:50;100419.06;;;3.17;100.00
53868;BME280;41577;47.470;19.080;2023-03-03T00:28:09;100413.91;;;3.16;100.00
53868;BME280;41577;47.470;19.080;2023-03-03T00:28:31;100418.06;;;3.18;100.00
53868;BME280;41577;47.470;19.080;2023-03-03T00:28:46;100422.53;;;3.18;100.00
53868;BME280;41577;47.470;19.080;2023-03-03T00:29:26;100422.53;;;3.18;100.00
53868;BME280;41577;47.470;19.080;2023-03-03T00:29:40;100421.53;;;3.19;100.00
53868;BME280;41577;47.470;19.080;2023-03-03T00:29:57;100415.44;;;3.18;100.00
53868;BME280;41577;47.470;19.080;2023-03-03T00:30:21;100422.38;;;3.19;100.00
53868;BME280;41577;47.470;19.080;2023-03-03T00:30:34;100411.28;;;3.16;100.00
53868;BME280;41577;47.470;19.080;2023-03-03T00:30:47;100419.88;;;3.18;100.00
53868;BME280;41577;47.470;19.080;2023-03-03T00:31:01;100414.72;;;3.16;100.00
53868;BME280;41577;47.470;19.080;2023-03-03T00:31:30;100415.56;;;3.17;100.00
53868;BME280;41577;47.470;19.080;2023-03-03T00:31:47;100415.56;;;3.17;100.00
53868;BME280;41577;47.470;19.080;2023-03-03T00:32:21;100414.88;;;3.14;100.00
53868;BME280;41577;47.470;19.080;2023-03-03T00:32:39;100416.53;;;3.16;100.00
53868;BME280;41577;47.470;19.080;2023-03-03T00:32:53;100422.66;;;3.16;100.00
53868;BME280;41577;47.470;19.080;2023-03-03T00:33:14;100416.53;;;3.16;100.00
53868;BME280;41577;47.470;19.080;2023-03-03T00:33:31;100413.22;;;3.13;100.00
53868;BME280;41577;47.470;19.080;2023-03-03T00:33:46;100420.13;;;3.14;100.00
53868;BME280;41577;47.470;19.080;2023-03-03T00:34:17;100412.63;;;3.10;100.00
53868;BME280;41577;47.470;19.080;2023-03-03T00:34:34;100413.34;;;3.12;100.00
53868;BME280;41577;47.470;19.080;2023-03-03T00:34:48;100415.16;;;3.11;100.00
53868;BME280;41577;47.470;19.080;2023-03-03T00:35:07;100415.03;;;3.13;100.00
53868;BME280;41577;47.470;19.080;2023-03-03T00:35:31;100413.50;;;3.10;100.00
53868;BME280;41577;47.470;19.080;2023-03-03T00:35:45;100420.44;;;3.11;100.00
53868;BME280;41577;47.470;19.080;2023-03-03T00:36:21;100417.09;;;3.09;100.00
53868;BME280;41577;47.470;19.080;2023-03-03T00:36:36;100408.22;;;3.10;100.00
53868;BME280;41577;47.470;19.080;2023-03-03T00:36:52;100421.41;;;3.10;100.00
53868;BME280;41577;47.470;19.080;2023-03-03T00:37:27;100414.44;;;3.09;100.00
53868;BME280;41577;47.470;19.080;2023-03-03T00:37:43;100413.50;;;3.10;100.00
53868;BME280;41577;47.470;19.080;2023-03-03T00:37:59;100414.44;;;3.09;100.00
53868;BME280;41577;47.470;19.080;2023-03-03T00:38:15;100413.75;;;3.07;100.00
53868;BME280;41577;47.470;19.080;2023-03-03T00:38:29;100412.78;;;3.08;100.00
53868;BME280;41577;47.470;19.080;2023-03-03T00:38:41;100411.94;;;3.08;100.00
53868;BME280;41577;47.470;19.080;2023-03-03T00:38:53;100415.44;;;3.08;100.00
53868;BME280;41577;47.470;19.080;2023-03-03T00:39:26;100416.38;;;3.07;100.00
53868;BME280;41577;47.470;19.080;2023-03-03T00:39:40;100416.25;;;3.09;100.00
53868;BME280;41577;47.470;19.080;2023-03-03T00:39:52;100422.50;;;3.08;100.00
53868;BME280;41577;47.470;19.080;2023-03-03T00:40:20;100411.09;;;3.07;100.00
53868;BME280;41577;47.470;19.080;2023-03-03T00:40:35;100415.44;;;3.08;100.00
53868;BME280;41577;47.470;19.080;2023-03-03T00:40:50;100416.38;;;3.07;100.00
53868;BME280;41577;47.470;19.080;2023-03-03T00:41:10;100418.06;;;3.08;100.00
53868;BME280;41577;47.470;19.080;2023-03-03T00:41:27;100415.44;;;3.08;100.00
53868;BME280;41577;47.470;19.080;2023-03-03T00:41:40;100414.72;;;3.06;100.00
53868;BME280;41577;47.470;19.080;2023-03-03T00:41:53;100416.25;;;3.09;100.00
53868;BME280;41577;47.470;19.080;2023-03-03T00:42:11;100417.22;;;3.08;100.00
53868;BME280;41577;47.470;19.080;2023-03-03T00:42:26;100410.16;;;3.08;100.00
53868;BME280;41577;47.470;19.080;2023-03-03T00:42:38;100412.09;;;3.06;100.00
53868;BME280;41577;47.470;19.080;2023-03-03T00:42:53;100417.09;;;3.09;100.00
53868;BME280;41577;47.470;19.080;2023-03-03T00:43:14;100417.91;;;3.10;100.00
53868;BME280;41577;47.470;19.080;2023-03-03T00:43:35;100413.63;;;3.09;100.00
53868;BME280;41577;47.470;19.080;2023-03-03T00:43:47;100411.81;;;3.09;100.00
53868;BME280;41577;47.470;19.080;2023-03-03T00:44:22;100416.13;;;3.10;100.00
53868;BME280;41577;47.470;19.080;2023-03-03T00:44:40;100413.34;;;3.12;100.00
53868;BME280;41577;47.470;19.080;2023-03-03T00:44:56;100418.59;;;3.12;100.00
53868;BME280;41577;47.470;19.080;2023-03-03T00:45:24;100414.88;;;3.14;100.00
53868;BME280;41577;47.470;19.080;2023-03-03T00:45:40;100408.63;;;3.16;100.00
53868;BME280;41577;47.470;19.080;2023-03-03T00:45:55;100414.72;;;3.16;100.00
53868;BME280;41577;47.470;19.080;2023-03-03T00:46:07;100415.44;;;3.18;100.00
53868;BME280;41577;47.470;19.080;2023-03-03T00:46:22;100418.06;;;3.18;100.00
53868;BME280;41577;47.470;19.080;2023-03-03T00:46:36;100415.31;;;3.20;100.00
53868;BME280;41577;47.470;19.080;2023-03-03T00:46:50;100413.63;;;3.19;100.00
53868;BME280;41577;47.470;19.080;2023-03-03T00:47:15;100412.78;;;3.18;100.00
53868;BME280;41577;47.470;19.080;2023-03-03T00:47:35;100410.03;;;3.20;100.00
53868;BME280;41577;47.470;19.080;2023-03-03T00:47:48;100413.63;;;3.19;100.00
53868;BME280;41577;47.470;19.080;2023-03-03T00:48:15;100417.09;;;3.19;100.00
53868;BME280;41577;47.470;19.080;2023-03-03T00:48:40;100401.00;;;3.12;100.00
53868;BME280;41577;47.470;19.080;2023-03-03T00:48:54;100398.38;;;3.12;100.00
53868;BME280;41577;47.470;19.080;2023-03-03T00:49:20;100410.97;;;3.19;100.00
53868;BME280;41577;47.470;19.080;2023-03-03T00:49:34;100407.38;;;3.20;100.00
53868;BME280;41577;47.470;19.080;2023-03-03T00:49:47;100415.31;;;3.20;100.00
53868;BME280;41577;47.470;19.080;2023-03-03T00:50:24;100410.84;;;3.20;100.00
53868;BME280;41577;47.470;19.080;2023-03-03T00:50:40;100414.31;;;3.21;100.00
53868;BME280;41577;47.470;19.080;2023-03-03T00:50:56;100411.69;;;3.21;100.00
53868;BME280;41577;47.470;19.080;2023-03-03T00:51:24;100411.69;;;3.21;100.00
53868;BME280;41577;47.470;19.080;2023-03-03T00:51:36;100414.31;;;3.21;100.00
53868;BME280;41577;47.470;19.080;2023-03-03T00:51:49;100406.41;;;3.21;100.00
53868;BME280;41577;47.470;19.080;2023-03-03T00:52:10;100407.38;;;3.20;100.00
53868;BME280;41577;47.470;19.080;2023-03-03T00:52:26;100409.16;;;3.19;100.00
53868;BME280;41577;47.470;19.080;2023-03-03T00:52:39;100415.31;;;3.20;100.00
53868;BME280;41577;47.470;19.080;2023-03-03T00:52:58;100412.78;;;3.18;100.00
53868;BME280;41577;47.470;19.080;2023-03-03T00:53:13;100403.06;;;3.19;100.00
53868;BME280;41577;47.470;19.080;2023-03-03T00:53:27;100409.34;;;3.18;100.00
53868;BME280;41577;47.470;19.080;2023-03-03T00:53:40;100408.50;;;3.17;100.00
53868;BME280;41577;47.470;19.080;2023-03-03T00:53:52;100399.03;;;3.14;100.00
53868;BME280;41577;47.470;19.080;2023-03-03T00:54:04;100404.19;;;3.16;100.00
53868;BME280;41577;47.470;19.080;2023-03-03T00:54:19;100404.31;;;3.14;100.00
53868;BME280;41577;47.470;19.080;2023-03-03T00:54:32;100409.47;;;3.16;100.00
53868;BME280;41577;47.470;19.080;2023-03-03T00:54:45;100412.09;;;3.16;100.00
53868;BME280;41577;47.470;19.080;2023-03-03T00:54:57;100411.28;;;3.16;100.00
53868;BME280;41577;47.470;19.080;2023-03-03T00:55:10;100413.91;;;3.16;100.00
53868;BME280;41577;47.470;19.080;2023-03-03T00:55:23;100411.28;;;3.16;100.00
53868;BME280;41577;47.470;19.080;2023-03-03T00:55:36;100411.41;;;3.14;100.00
53868;BME280;41577;47.470;19.080;2023-03-03T00:55:50;100410.56;;;3.13;100.00
53868;BME280;41577;47.470;19.080;2023-03-03T00:56:03;100407.94;;;3.13;100.00
53868;BME280;41577;47.470;19.080;2023-03-03T00:56:17;100408.75;;;3.14;100.00
53868;BME280;41577;47.470;19.080;2023-03-03T00:56:29;100401.81;;;3.13;100.00
53868;BME280;41577;47.470;19.080;2023-03-03T00:56:42;100410.56;;;3.13;100.00
53868;BME280;41577;47.470;19.080;2023-03-03T00:56:58;100412.38;;;3.13;100.00
53868;BME280;41577;47.470;19.080;2023-03-03T00:57:10;100411.56;;;3.12;100.00
53868;BME280;41577;47.470;19.080;2023-03-03T00:57:26;100405.41;;;3.12;100.00
53868;BME280;41577;47.470;19.080;2023-03-03T00:57:45;100412.50;;;3.11;100.00
53868;BME280;41577;47.470;19.080;2023-03-03T00:58:01;100403.91;;;3.09;100.00
53868;BME280;41577;47.470;19.080;2023-03-03T00:58:18;100407.34;;;3.10;100.00
53868;BME280;41577;47.470;19.080;2023-03-03T00:58:33;100409.16;;;3.09;100.00
53868;BME280;41577;47.470;19.080;2023-03-03T00:58:46;100405.72;;;3.09;100.00
53868;BME280;41577;47.470;19.080;2023-03-03T00:59:00;100406.53;;;3.09;100.00
53868;BME280;41577;47.470;19.080;2023-03-03T00:59:13;100406.53;;;3.09;100.00
53868;BME280;41577;47.470;19.080;2023-03-03T00:59:27;100406.53;;;3.09;100.00
53868;BME280;41577;47.470;19.080;2023-03-03T00:59:39;100407.34;;;3.10;100.00
53868;BME280;41577;47.470;19.080;2023-03-03T00:59:54;100404.88;;;3.08;100.00
53868;BME280;41577;47.470;19.080;2023-03-03T01:00:09;100406.53;;;3.09;100.00
53868;BME280;41577;47.470;19.080;2023-03-03T01:00:27;100402.09;;;3.10;100.00
53868;BME280;41577;47.470;19.080;2023-03-03T01:00:40;100403.91;;;3.09;100.00
53868;BME280;41577;47.470;19.080;2023-03-03T01:00:55;100399.59;;;3.08;100.00
53868;BME280;41577;47.470;19.080;2023-03-03T01:01:14;100409.88;;;3.11;100.00
53868;BME280;41577;47.470;19.080;2023-03-03T01:01:30;100408.22;;;3.10;100.00
53868;BME280;41577;47.470;19.080;2023-03-03T01:01:43;100402.09;;;3.10;100.00
53868;BME280;41577;47.470;19.080;2023-03-03T01:01:56;100405.41;;;3.12;100.00
53868;BME280;41577;47.470;19.080;2023-03-03T01:02:09;100405.41;;;3.12;100.00
53868;BME280;41577;47.470;19.080;2023-03-03T01:02:21;100404.59;;;3.11;100.00
53868;BME280;41577;47.470;19.080;2023-03-03T01:02:36;100403.06;;;3.09;100.00
53868;BME280;41577;47.470;19.080;2023-03-03T01:02:51;100405.41;;;3.12;100.00
53868;BME280;41577;47.470;19.080;2023-03-03T01:03:06;100397.66;;;3.10;100.00
53868;BME280;41577;47.470;19.080;2023-03-03T01:03:20;100412.50;;;3.11;100.00
53868;BME280;41577;47.470;19.080;2023-03-03T01:03:32;100404.59;;;3.11;100.00
53868;BME280;41577;47.470;19.080;2023-03-03T01:03:45;100402.94;;;3.10;100.00
53868;BME280;41577;47.470;19.080;2023-03-03T01:03:58;100399.31;;;3.11;100.00
53868;BME280;41577;47.470;19.080;2023-03-03T01:04:10;100398.63;;;3.09;100.00
53868;BME280;41577;47.470;19.080;2023-03-03T01:04:24;100402.09;;;3.10;100.00
53868;BME280;41577;47.470;19.080;2023-03-03T01:04:38;100395.84;;;3.11;100.00
53868;BME280;41577;47.470;19.080;2023-03-03T01:04:52;100395.03;;;3.10;100.00
53868;BME280;41577;47.470;19.080;2023-03-03T01:05:08;100393.34;;;3.09;100.00
53868;BME280;41577;47.470;19.080;2023-03-03T01:05:21;100408.91;;;3.12;100.00
53868;BME280;41577;47.470;19.080;2023-03-03T01:05:34;100400.16;;;3.12;100.00
53868;BME280;41577;47.470;19.080;2023-03-03T01:05:48;100401.13;;;3.11;100.00
53868;BME280;41577;47.470;19.080;2023-03-03T01:06:01;100400.16;;;3.12;100.00
53868;BME280;41577;47.470;19.080;2023-03-03T01:06:16;100400.16;;;3.12;100.00
53868;BME280;41577;47.470;19.080;2023-03-03T01:06:28;100397.50;;;3.12;100.00
53868;BME280;41577;47.470;19.080;2023-03-03T01:06:40;100398.38;;;3.12;100.00
53868;BME280;41577;47.470;19.080;2023-03-03T01:06:53;100398.38;;;3.12;100.00
53868;BME280;41577;47.470;19.080;2023-03-03T01:07:06;100385.72;;;3.06;100.00
53868;BME280;41577;47.470;19.080;2023-03-03T01:07:19;100395.72;;;3.12;100.00
53868;BME280;41577;47.470;19.080;2023-03-03T01:07:31;100394.75;;;3.13;100.00
53868;BME280;41577;47.470;19.080;2023-03-03T01:07:45;100395.56;;;3.14;100.00
53868;BME280;41577;47.470;19.080;2023-03-03T01:07:57;100399.03;;;3.14;100.00
53868;BME280;41577;47.470;19.080;2023-03-03T01:08:10;100398.06;;;3.16;100.00
53868;BME280;41577;47.470;19.080;2023-03-03T01:08:23;100399.72;;;3.17;100.00
53868;BME280;41577;47.470;19.080;2023-03-03T01:08:35;100401.41;;;3.18;100.00
53868;BME280;41577;47.470;19.080;2023-03-03T01:08:48;100391.81;;;3.17;100.00
53868;BME280;41577;47.470;19.080;2023-03-03T01:09:01;100396.13;;;3.18;100.00
53868;BME280;41577;47.470;19.080;2023-03-03T01:09:13;100396.13;;;3.18;100.00
53868;BME280;41577;47.470;19.080;2023-03-03T01:09:25;100401.13;;;3.21;100.00
53868;BME280;41577;47.470;19.080;2023-03-03T01:09:38;100392.38;;;3.20;100.00
53868;BME280;41577;47.470;19.080;2023-03-03T01:09:53;100395.84;;;3.21;100.00
53868;BME280;41577;47.470;19.080;2023-03-03T01:10:07;100394.91;;;3.22;100.00
53868;BME280;41577;47.470;19.080;2023-03-03T01:10:27;100392.25;;;3.22;100.00
53868;BME280;41577;47.470;19.080;2023-03-03T01:10:43;100390.28;;;3.24;100.00
53868;BME280;41577;47.470;19.080;2023-03-03T01:10:58;100388.91;;;3.20;100.00
53868;BME280;41577;47.470;19.080;2023-03-03T01:11:13;100390.56;;;3.21;100.00
53868;BME280;41577;47.470;19.080;2023-03-03T01:11:27;100390.28;;;3.24;100.00
53868;BME280;41577;47.470;19.080;2023-03-03T01:11:40;100393.22;;;3.21;100.00
53868;BME280;41577;47.470;19.080;2023-03-03T01:11:52;100392.91;;;3.24;100.00
53868;BME280;41577;47.470;19.080;2023-03-03T01:12:04;100392.91;;;3.24;100.00
53868;BME280;41577;47.470;19.080;2023-03-03T01:12:17;100397.25;;;3.25;100.00
53868;BME280;41577;47.470;19.080;2023-03-03T01:12:29;100383.47;;;3.21;100.00
53868;BME280;41577;47.470;19.080;2023-03-03T01:12:45;100391.97;;;3.25;100.00
53868;BME280;41577;47.470;19.080;2023-03-03T01:12:58;100390.97;;;3.26;100.00
53868;BME280;41577;47.470;19.080;2023-03-03T01:13:11;100390.97;;;3.26;100.00
53868;BME280;41577;47.470;19.080;2023-03-03T01:13:26;100393.50;;;3.27;100.00
53868;BME280;41577;47.470;19.080;2023-03-03T01:13:42;100388.22;;;3.27;100.00
53868;BME280;41577;47.470;19.080;2023-03-03T01:13:56;100389.03;;;3.28;100.00
53868;BME280;41577;47.470;19.080;2023-03-03T01:14:10;100390.84;;;3.27;100.00
53868;BME280;41577;47.470;19.080;2023-03-03T01:14:22;100390.03;;;3.27;100.00
53868;BME280;41577;47.470;19.080;2023-03-03T01:14:35;100396.13;;;3.27;100.00
53868;BME280;41577;47.470;19.080;2023-03-03T01:14:48;100390.72;;;3.29;100.00
53868;BME280;41577;47.470;19.080;2023-03-03T01:15:02;100391.56;;;3.29;100.00
53868;BME280;41577;47.470;19.080;2023-03-03T01:15:14;100384.59;;;3.28;100.00
53868;BME280;41577;47.470;19.080;2023-03-03T01:15:30;100384.75;;;3.27;100.00
53868;BME280;41577;47.470;19.080;2023-03-03T01:15:43;100393.38;;;3.29;100.00
53868;BME280;41577;47.470;19.080;2023-03-03T01:15:57;100389.03;;;3.28;100.00
53868;BME280;41577;47.470;19.080;2023-03-03T01:16:11;100389.03;;;3.28;100.00
53868;BME280;41577;47.470;19.080;2023-03-03T01:16:25;100380.28;;;3.27;100.00
53868;BME280;41577;47.470;19.080;2023-03-03T01:16:37;100382.09;;;3.27;100.00
53868;BME280;41577;47.470;19.080;2023-03-03T01:16:51;100392.66;;;3.27;100.00
53868;BME280;41577;47.470;19.080;2023-03-03T01:17:05;100389.19;;;3.26;100.00
53868;BME280;41577;47.470;19.080;2023-03-03T01:17:17;100393.50;;;3.27;100.00
53868;BME280;41577;47.470;19.080;2023-03-03T01:17:33;100386.56;;;3.26;100.00
53868;BME280;41577;47.470;19.080;2023-03-03T01:17:46;100393.63;;;3.26;100.00
53868;BME280;41577;47.470;19.080;2023-03-03T01:17:58;100385.69;;;3.26;100.00
53868;BME280;41577;47.470;19.080;2023-03-03T01:18:11;100393.63;;;3.26;100.00
53868;BME280;41577;47.470;19.080;2023-03-03T01:18:25;100385.69;;;3.26;100.00
53868;BME280;41577;47.470;19.080;2023-03-03T01:18:38;100393.78;;;3.24;100.00
53868;BME280;41577;47.470;19.080;2023-03-03T01:18:50;100384.03;;;3.25;100.00
53868;BME280;41577;47.470;19.080;2023-03-03T01:19:03;100387.66;;;3.24;100.00
53868;BME280;41577;47.470;19.080;2023-03-03T01:19:16;100390.16;;;3.25;100.00
53868;BME280;41577;47.470;19.080;2023-03-03T01:19:29;100384.88;;;3.25;100.00
53868;BME280;41577;47.470;19.080;2023-03-03T01:19:42;100383.34;;;3.23;100.00
53868;BME280;41577;47.470;19.080;2023-03-03T01:19:55;100390.16;;;3.25;100.00
53868;BME280;41577;47.470;19.080;2023-03-03T01:20:10;100396.25;;;3.26;100.00
53868;BME280;41577;47.470;19.080;2023-03-03T01:20:24;100386.69;;;3.25;100.00
53868;BME280;41577;47.470;19.080;2023-03-03T01:20:36;100387.50;;;3.25;100.00
53868;BME280;41577;47.470;19.080;2023-03-03T01:20:49;100388.50;;;3.24;100.00
53868;BME280;41577;47.470;19.080;2023-03-03T01:21:05;100383.22;;;3.24;100.00
53868;BME280;41577;47.470;19.080;2023-03-03T01:21:17;100390.16;;;3.25;100.00
53868;BME280;41577;47.470;19.080;2023-03-03T01:21:30;100381.81;;;3.20;100.00
53868;BME280;41577;47.470;19.080;2023-03-03T01:21:43;100388.34;;;3.26;100.00
53868;BME280;41577;47.470;19.080;2023-03-03T01:21:57;100390.97;;;3.26;100.00